createdAt,value
2023-02-09T00:00:38.770Z,28.57
2023-02-09T00:03:07.276Z,25.43
2023-02-09T00:05:35.858Z,22.40
2023-02-09T00:08:04.326Z,26.60
2023-02-09T00:10:32.789Z,23.87
2023-02-09T00:13:20.116Z,22.03
2023-02-09T00:15:50.046Z,18.87
2023-02-09T00:18:18.489Z,22.10
2023-02-09T00:20:47.150Z,20.43
2023-02-09T00:23:15.663Z,18.47
2023-02-09T00:25:44.172Z,21.23
2023-02-09T00:28:14.207Z,20.73
2023-02-09T00:30:42.850Z,20.27
2023-02-09T00:33:11.488Z,20.57
2023-02-09T00:35:41.628Z,22.60
2023-02-09T00:38:10.233Z,22.63
2023-02-09T00:40:39.381Z,22.47
2023-02-09T00:43:07.987Z,22.10
2023-02-09T00:45:37.944Z,19.20
2023-02-09T00:48:06.561Z,20.07
2023-02-09T00:50:35.073Z,22.93
2023-02-09T00:53:03.785Z,20.03
2023-02-09T00:55:32.289Z,22.20
2023-02-09T00:58:01.256Z,17.77
2023-02-09T01:00:30.730Z,17.80
2023-02-09T01:03:01.558Z,20.03
2023-02-09T01:05:30.299Z,18.83
2023-02-09T01:07:59.054Z,26.00
2023-02-09T01:10:27.542Z,21.20
2023-02-09T01:12:56.255Z,22.00
2023-02-09T01:15:25.002Z,20.47
2023-02-09T01:17:53.588Z,19.83
2023-02-09T01:20:23.378Z,22.80
2023-02-09T01:22:51.892Z,22.83
2023-02-09T01:25:20.504Z,18.73
2023-02-09T01:27:49.308Z,20.43
2023-02-09T01:30:18.140Z,19.80
2023-02-09T01:32:46.760Z,17.27
2023-02-09T01:35:15.243Z,19.53
2023-02-09T01:37:45.222Z,20.83
2023-02-09T01:40:13.979Z,18.73
2023-02-09T01:42:42.506Z,23.17
2023-02-09T01:45:21.161Z,18.23
2023-02-09T01:47:52.922Z,18.90
2023-02-09T01:50:22.041Z,20.80
2023-02-09T01:52:52.119Z,21.77
2023-02-09T01:55:23.046Z,17.83
2023-02-09T01:57:54.439Z,23.27
2023-02-09T02:00:23.658Z,23.77
2023-02-09T02:02:54.632Z,25.30
2023-02-09T02:05:23.573Z,21.30
2023-02-09T02:07:56.717Z,20.27
2023-02-09T02:10:26.341Z,20.50
2023-02-09T02:12:55.938Z,19.53
2023-02-09T02:15:27.390Z,20.67
2023-02-09T02:18:03.273Z,20.50
2023-02-09T02:20:47.137Z,20.07
2023-02-09T02:23:21.453Z,21.90
2023-02-09T02:26:17.154Z,19.37
2023-02-09T02:28:51.491Z,20.40
2023-02-09T02:31:32.782Z,28.53
2023-02-09T02:34:04.814Z,28.33
2023-02-09T02:36:36.825Z,24.50
2023-02-09T02:39:07.121Z,26.53
2023-02-09T02:41:52.756Z,26.80
2023-02-09T02:44:21.538Z,23.50
2023-02-09T02:46:54.898Z,21.30
2023-02-09T02:49:26.659Z,22.93
2023-02-09T02:51:57.264Z,21.03
2023-02-09T02:54:27.826Z,23.03
2023-02-09T02:56:58.571Z,23.17
2023-02-09T02:59:29.130Z,22.33
2023-02-09T03:02:01.396Z,24.77
2023-02-09T03:04:30.320Z,26.30
2023-02-09T03:06:58.957Z,28.33
2023-02-09T03:09:27.577Z,23.53
2023-02-09T03:11:59.376Z,26.40
2023-02-09T03:14:36.225Z,26.23
2023-02-09T03:17:13.729Z,27.77
2023-02-09T03:19:45.209Z,22.57
2023-02-09T03:22:16.509Z,24.07
2023-02-09T03:24:48.308Z,25.17
2023-02-09T03:27:18.977Z,23.13
2023-02-09T03:29:48.383Z,22.73
2023-02-09T03:32:19.374Z,24.47
2023-02-09T03:34:48.004Z,22.93
2023-02-09T03:37:16.496Z,23.70
2023-02-09T03:39:45.073Z,21.97
2023-02-09T03:42:13.580Z,25.87
2023-02-09T03:44:42.129Z,22.50
2023-02-09T03:47:11.302Z,24.37
2023-02-09T03:49:42.013Z,23.37
2023-02-09T03:52:11.555Z,31.73
2023-02-09T03:54:39.998Z,33.27
2023-02-09T03:57:08.669Z,29.73
2023-02-09T03:59:37.816Z,30.70
2023-02-09T04:02:07.307Z,28.40
2023-02-09T04:04:35.996Z,27.50
2023-02-09T04:07:05.841Z,27.03
2023-02-09T04:09:34.620Z,25.97
2023-02-09T04:12:03.490Z,24.10
2023-02-09T04:14:32.029Z,27.80
2023-02-09T04:17:00.448Z,26.13
2023-02-09T04:19:29.261Z,22.37
2023-02-09T04:21:58.066Z,29.57
2023-02-09T04:24:30.679Z,27.80
2023-02-09T04:26:59.154Z,25.90
2023-02-09T04:29:27.878Z,29.03
2023-02-09T04:31:56.477Z,30.83
2023-02-09T04:34:25.122Z,29.60
2023-02-09T04:36:53.606Z,25.87
2023-02-09T04:39:22.213Z,24.93
2023-02-09T04:41:52.062Z,24.57
2023-02-09T04:44:20.745Z,29.20
2023-02-09T04:46:49.257Z,28.60
2023-02-09T04:49:18.062Z,26.90
2023-02-09T04:51:46.441Z,23.70
2023-02-09T04:54:14.722Z,28.90
2023-02-09T04:56:42.910Z,33.50
2023-02-09T04:59:30.553Z,34.80
2023-02-09T05:01:58.975Z,29.83
2023-02-09T05:04:27.553Z,31.70
2023-02-09T05:06:56.237Z,32.00
2023-02-09T05:09:24.872Z,33.77
2023-02-09T05:11:53.364Z,30.40
2023-02-09T05:14:23.362Z,35.83
2023-02-09T05:16:51.876Z,37.47
2023-02-09T05:19:20.414Z,40.30
2023-02-09T05:21:48.928Z,33.03
2023-02-09T05:24:17.421Z,32.57
2023-02-09T05:26:45.887Z,39.07
2023-02-09T05:29:15.541Z,35.53
2023-02-09T05:31:45.546Z,42.40
2023-02-09T05:34:14.376Z,48.67
2023-02-09T05:36:42.864Z,40.80
2023-02-09T05:39:11.566Z,40.93
2023-02-09T05:41:57.791Z,41.07
2023-02-09T05:44:27.115Z,46.90
2023-02-09T05:46:56.863Z,51.87
2023-02-09T05:49:26.014Z,49.63
2023-02-09T05:51:54.538Z,52.20
2023-02-09T05:54:23.036Z,48.83
2023-02-09T05:56:51.500Z,48.50
2023-02-09T05:59:20.079Z,46.60
2023-02-09T06:01:48.591Z,56.43
2023-02-09T06:04:18.620Z,56.90
2023-02-09T06:06:46.802Z,56.13
2023-02-09T06:09:15.011Z,51.50
2023-02-09T06:11:43.351Z,57.13
2023-02-09T06:14:11.945Z,51.60
2023-02-09T06:16:41.675Z,49.73
2023-02-09T06:19:23.142Z,55.40
2023-02-09T06:21:51.363Z,54.13
2023-02-09T06:24:19.897Z,54.50
2023-02-09T06:26:48.381Z,58.27
2023-02-09T06:29:16.894Z,57.53
2023-02-09T06:31:45.452Z,56.37
2023-02-09T06:34:14.478Z,56.33
2023-02-09T06:36:44.361Z,56.77
2023-02-09T06:39:13.064Z,66.90
2023-02-09T06:41:41.688Z,61.23
2023-02-09T06:44:11.563Z,55.37
2023-02-09T06:46:40.779Z,58.13
2023-02-09T06:49:09.289Z,63.33
2023-02-09T06:51:37.999Z,58.77
2023-02-09T06:54:10.334Z,66.13
2023-02-09T06:56:38.903Z,68.37
2023-02-09T06:59:08.960Z,57.50
2023-02-09T07:01:37.564Z,60.70
2023-02-09T07:04:06.364Z,63.13
2023-02-09T07:06:34.840Z,56.33
2023-02-09T07:09:04.512Z,60.53
2023-02-09T07:11:34.585Z,55.87
2023-02-09T07:14:03.195Z,61.40
2023-02-09T07:16:31.988Z,57.27
2023-02-09T07:19:01.790Z,56.60
2023-02-09T07:21:31.321Z,58.53
2023-02-09T07:23:59.934Z,59.67
2023-02-09T07:26:28.397Z,59.67
2023-02-09T07:28:58.395Z,56.07
2023-02-09T07:31:27.580Z,57.17
2023-02-09T07:33:56.754Z,51.40
2023-02-09T07:36:25.298Z,53.87
2023-02-09T07:38:54.086Z,51.13
2023-02-09T07:41:25.228Z,47.53
2023-02-09T07:43:54.521Z,46.53
2023-02-09T07:46:25.716Z,47.37
2023-02-09T07:48:54.165Z,39.37
2023-02-09T07:51:25.304Z,39.10
2023-02-09T07:53:54.136Z,40.73
2023-02-09T07:56:22.566Z,40.87
2023-02-09T07:58:51.350Z,41.47
2023-02-09T08:01:20.327Z,39.47
2023-02-09T08:03:51.078Z,35.57
2023-02-09T08:06:30.478Z,34.50
2023-02-09T08:09:05.525Z,37.10
2023-02-09T08:11:36.402Z,37.10
2023-02-09T08:14:06.813Z,37.17
2023-02-09T08:16:37.409Z,36.60
2023-02-09T08:19:08.862Z,41.97
2023-02-09T08:21:39.252Z,40.80
2023-02-09T08:24:08.480Z,42.30
2023-02-09T08:26:37.016Z,36.67
2023-02-09T08:29:05.778Z,41.87
2023-02-09T08:31:34.107Z,39.63
2023-02-09T08:34:02.502Z,40.40
2023-02-09T08:36:32.459Z,44.50
2023-02-09T08:39:00.828Z,44.00
2023-02-09T08:41:28.948Z,46.73
2023-02-09T08:43:57.130Z,45.33
2023-02-09T08:46:25.383Z,45.10
2023-02-09T08:48:54.585Z,41.20
2023-02-09T08:51:23.146Z,42.00
2023-02-09T08:53:53.113Z,47.30
2023-02-09T08:56:22.252Z,45.73
2023-02-09T08:58:51.618Z,44.13
2023-02-09T09:01:20.253Z,40.93
2023-02-09T09:03:49.558Z,41.63
2023-02-09T09:06:18.110Z,42.73
2023-02-09T09:08:46.394Z,44.27
2023-02-09T09:11:17.424Z,41.70
2023-02-09T09:13:46.225Z,39.83
2023-02-09T09:16:18.302Z,43.03
2023-02-09T09:18:47.026Z,46.50
2023-02-09T09:21:17.146Z,43.40
2023-02-09T09:23:45.915Z,46.27
2023-02-09T09:26:15.632Z,41.17
2023-02-09T09:28:43.938Z,43.43
2023-02-09T09:31:14.542Z,44.83
2023-02-09T09:33:43.212Z,43.30
2023-02-09T09:36:12.186Z,37.40
2023-02-09T09:38:40.877Z,38.97
2023-02-09T09:41:20.015Z,44.53
2023-02-09T09:43:48.812Z,43.83
2023-02-09T09:46:19.224Z,43.97
2023-02-09T09:48:49.538Z,46.73
2023-02-09T09:51:21.477Z,43.57
2023-02-09T09:53:51.753Z,45.53
2023-02-09T09:56:22.327Z,44.70
2023-02-09T09:58:51.730Z,45.20
2023-02-09T10:01:23.511Z,43.77
2023-02-09T10:03:51.789Z,50.17
2023-02-09T10:06:22.324Z,44.40
2023-02-09T10:08:56.029Z,54.30
2023-02-09T10:11:29.601Z,44.73
2023-02-09T10:13:58.868Z,51.87
2023-02-09T10:16:30.554Z,50.60
2023-02-09T10:19:00.502Z,45.50
2023-02-09T10:21:30.567Z,46.77
2023-02-09T10:24:13.056Z,43.57
2023-02-09T10:26:43.138Z,46.03
2023-02-09T10:29:25.690Z,43.40
2023-02-09T10:31:58.339Z,46.20
2023-02-09T10:34:30.775Z,43.03
2023-02-09T10:37:13.966Z,45.80
2023-02-09T10:39:42.528Z,45.67
2023-02-09T10:42:21.385Z,43.17
2023-02-09T10:44:51.214Z,45.37
2023-02-09T10:47:28.278Z,47.43
2023-02-09T10:50:00.680Z,43.23
2023-02-09T10:52:33.552Z,43.13
2023-02-09T10:55:03.352Z,43.17
2023-02-09T10:57:35.654Z,40.70
2023-02-09T11:00:21.824Z,44.10
2023-02-09T11:02:52.754Z,47.70
2023-02-09T11:05:33.512Z,42.03
2023-02-09T11:08:17.580Z,40.93
2023-02-09T11:10:59.842Z,41.50
2023-02-09T11:13:32.173Z,39.30
2023-02-09T11:16:38.261Z,45.17
2023-02-09T11:19:22.666Z,50.57
2023-02-09T11:22:01.043Z,45.50
2023-02-09T11:24:55.333Z,50.47
2023-02-09T11:27:39.415Z,43.33
2023-02-09T11:30:17.282Z,40.80
2023-02-09T11:32:48.004Z,42.73
2023-02-09T11:35:19.413Z,42.43
2023-02-09T11:37:51.752Z,45.37
2023-02-09T11:40:28.111Z,46.00
2023-02-09T11:43:00.819Z,48.57
2023-02-09T11:45:32.590Z,40.43
2023-02-09T11:48:04.583Z,52.50
2023-02-09T11:50:40.646Z,48.60
2023-02-09T11:53:27.313Z,47.80
2023-02-09T11:55:58.589Z,50.27
2023-02-09T11:58:37.918Z,44.10
2023-02-09T12:01:17.276Z,52.17
2023-02-09T12:04:00.266Z,51.37
2023-02-09T12:06:33.974Z,48.87
2023-02-09T12:09:11.158Z,50.90
2023-02-09T12:11:50.458Z,52.93
2023-02-09T12:14:29.058Z,51.63
2023-02-09T12:17:06.225Z,49.67
2023-02-09T12:19:37.446Z,45.00
2023-02-09T12:22:45.059Z,50.10
2023-02-09T12:25:54.619Z,51.67
2023-02-09T12:28:45.622Z,51.87
2023-02-09T12:31:20.196Z,50.80
2023-02-09T12:34:15.938Z,57.37
2023-02-09T12:37:19.997Z,54.90
2023-02-09T12:40:25.008Z,51.90
2023-02-09T12:43:29.526Z,55.10
2023-02-09T12:46:18.195Z,57.47
2023-02-09T12:49:10.088Z,56.73
2023-02-09T12:51:55.818Z,55.77
2023-02-09T12:54:33.526Z,53.83
2023-02-09T12:57:46.657Z,62.97
2023-02-09T13:00:55.958Z,58.93
2023-02-09T13:03:26.398Z,53.13
2023-02-09T13:06:01.205Z,51.93
2023-02-09T13:08:37.623Z,51.73
2023-02-09T13:11:17.759Z,48.80
2023-02-09T13:13:50.622Z,48.90
2023-02-09T13:16:51.390Z,47.57
2023-02-09T13:19:48.283Z,49.40
2023-02-09T13:22:48.393Z,50.73
2023-02-09T13:25:32.365Z,47.40
2023-02-09T13:28:17.329Z,49.07
2023-02-09T13:30:46.125Z,49.23
2023-02-09T13:33:27.825Z,50.93
2023-02-09T13:36:22.897Z,51.40
2023-02-09T13:38:54.478Z,52.20
2023-02-09T13:41:37.506Z,52.50
2023-02-09T13:44:19.680Z,50.63
2023-02-09T13:46:54.061Z,53.60
2023-02-09T13:49:24.103Z,54.37
2023-02-09T13:52:15.152Z,50.07
2023-02-09T13:54:45.207Z,51.00
2023-02-09T13:57:28.283Z,50.23
2023-02-09T13:59:58.284Z,54.83
2023-02-09T14:02:28.370Z,47.70
2023-02-09T14:05:01.245Z,52.93
2023-02-09T14:07:33.725Z,51.83
2023-02-09T14:10:11.570Z,51.03
2023-02-09T14:12:55.890Z,48.57
2023-02-09T14:15:49.793Z,45.73
2023-02-09T14:18:24.669Z,45.67
2023-02-09T14:21:19.198Z,52.87
2023-02-09T14:23:49.724Z,46.80
2023-02-09T14:26:37.808Z,50.10
2023-02-09T14:29:14.783Z,49.73
2023-02-09T14:31:46.239Z,56.73
2023-02-09T14:34:35.322Z,50.47
2023-02-09T14:37:05.766Z,52.60
2023-02-09T14:39:33.871Z,56.57
2023-02-09T14:42:17.981Z,46.40
2023-02-09T14:44:48.619Z,49.07
2023-02-09T14:47:31.952Z,49.07
2023-02-09T14:50:00.423Z,49.83
2023-02-09T14:52:31.568Z,54.47
2023-02-09T14:55:03.153Z,50.43
2023-02-09T14:57:36.218Z,51.87
2023-02-09T15:00:16.476Z,52.40
2023-02-09T15:02:45.601Z,50.20
2023-02-09T15:05:14.081Z,53.33
2023-02-09T15:07:45.770Z,53.07
2023-02-09T15:10:24.808Z,49.17
2023-02-09T15:12:54.868Z,51.63
2023-02-09T15:15:24.197Z,51.27
2023-02-09T15:17:54.308Z,48.70
2023-02-09T15:20:25.146Z,57.27
2023-02-09T15:22:53.892Z,58.97
2023-02-09T15:25:22.772Z,54.67
2023-02-09T15:27:53.824Z,52.93
2023-02-09T15:30:26.606Z,54.83
2023-02-09T15:32:55.047Z,58.47
2023-02-09T15:35:25.192Z,54.33
2023-02-09T15:37:55.848Z,58.63
2023-02-09T15:40:48.281Z,51.33
2023-02-09T15:43:36.349Z,60.20
2023-02-09T15:46:22.606Z,58.83
2023-02-09T15:48:50.771Z,63.97
2023-02-09T15:51:19.019Z,59.73
2023-02-09T15:53:47.646Z,54.53
2023-02-09T15:56:16.627Z,54.83
2023-02-09T15:58:46.371Z,61.53
2023-02-09T16:01:17.708Z,53.13
2023-02-09T16:03:46.433Z,57.90
2023-02-09T16:06:17.851Z,58.43
2023-02-09T16:08:49.022Z,59.40
2023-02-09T16:11:20.767Z,66.30
2023-02-09T16:13:49.248Z,61.73
2023-02-09T16:16:18.845Z,57.83
2023-02-09T16:18:47.754Z,57.13
2023-02-09T16:21:23.374Z,64.67
2023-02-09T16:23:52.425Z,57.57
2023-02-09T16:26:21.074Z,63.97
2023-02-09T16:28:49.256Z,68.63
2023-02-09T16:31:20.230Z,74.27
2023-02-09T16:33:50.538Z,75.50
2023-02-09T16:36:19.700Z,74.93
2023-02-09T16:38:48.179Z,84.27
2023-02-09T16:41:31.810Z,83.53
2023-02-09T16:44:00.676Z,81.43
2023-02-09T16:46:32.619Z,90.13
2023-02-09T16:49:02.498Z,84.70
2023-02-09T16:51:30.943Z,88.97
2023-02-09T16:53:59.556Z,85.33
2023-02-09T16:56:30.772Z,78.37
2023-02-09T16:58:59.211Z,86.53
2023-02-09T17:01:27.826Z,81.73
2023-02-09T17:03:58.356Z,90.37
2023-02-09T17:06:28.520Z,91.87
2023-02-09T17:08:58.867Z,89.40
2023-02-09T17:11:28.525Z,88.03
2023-02-09T17:13:57.578Z,94.07
2023-02-09T17:16:27.296Z,92.83
2023-02-09T17:18:58.116Z,90.30
2023-02-09T17:21:29.090Z,85.67
2023-02-09T17:23:58.439Z,97.03
2023-02-09T17:26:26.921Z,87.03
2023-02-09T17:28:55.900Z,90.97
2023-02-09T17:31:25.578Z,98.90
2023-02-09T17:33:55.181Z,91.20
2023-02-09T17:36:27.628Z,92.47
2023-02-09T17:38:59.686Z,93.87
2023-02-09T17:41:30.532Z,94.60
2023-02-09T17:44:17.525Z,89.83
2023-02-09T17:46:49.478Z,89.87
2023-02-09T17:49:20.612Z,97.03
2023-02-09T17:51:49.276Z,97.50
2023-02-09T17:54:20.242Z,90.83
2023-02-09T17:56:48.944Z,95.40
2023-02-09T17:59:19.908Z,96.50
2023-02-09T18:01:50.671Z,93.97
2023-02-09T18:04:20.747Z,96.43
2023-02-09T18:06:50.293Z,97.00
2023-02-09T18:09:20.089Z,89.10
2023-02-09T18:11:59.665Z,95.40
2023-02-09T18:14:28.743Z,94.43
2023-02-09T18:16:57.216Z,96.13
2023-02-09T18:19:26.122Z,97.47
2023-02-09T18:21:55.813Z,101.27
2023-02-09T18:24:26.655Z,99.03
2023-02-09T18:26:55.321Z,98.23
2023-02-09T18:29:29.100Z,97.50
2023-02-09T18:31:57.722Z,95.53
2023-02-09T18:34:26.170Z,92.83
2023-02-09T18:36:54.639Z,89.60
2023-02-09T18:39:23.215Z,99.93
2023-02-09T18:41:55.262Z,93.93
2023-02-09T18:44:28.644Z,94.47
2023-02-09T18:46:57.347Z,97.10
2023-02-09T18:49:25.870Z,98.43
2023-02-09T18:51:54.254Z,99.60
2023-02-09T18:54:22.793Z,108.17
2023-02-09T18:56:54.291Z,104.93
2023-02-09T18:59:22.777Z,108.23
2023-02-09T19:01:51.215Z,97.60
2023-02-09T19:04:19.903Z,105.27
2023-02-09T19:06:48.496Z,96.87
2023-02-09T19:09:17.168Z,102.83
2023-02-09T19:11:45.637Z,104.80
2023-02-09T19:14:33.231Z,95.27
2023-02-09T19:17:01.865Z,119.90
2023-02-09T19:19:30.381Z,106.67
2023-02-09T19:22:01.570Z,113.00
2023-02-09T19:24:30.380Z,108.00
2023-02-09T19:26:58.902Z,92.97
2023-02-09T19:29:29.002Z,96.93
2023-02-09T19:31:57.471Z,104.60
2023-02-09T19:34:26.001Z,93.30
2023-02-09T19:36:54.574Z,100.10
2023-02-09T19:39:23.212Z,97.20
2023-02-09T19:41:51.659Z,107.67
2023-02-09T19:44:20.034Z,98.87
2023-02-09T19:46:50.566Z,102.97
2023-02-09T19:49:19.254Z,100.03
2023-02-09T19:51:47.805Z,108.23
2023-02-09T19:54:16.008Z,114.47
2023-02-09T19:56:45.203Z,110.17
2023-02-09T19:59:14.140Z,107.23
2023-02-09T20:01:43.373Z,115.17
2023-02-09T20:04:14.584Z,119.80
2023-02-09T20:06:43.091Z,113.97
2023-02-09T20:09:13.681Z,114.00
2023-02-09T20:11:42.135Z,112.63
2023-02-09T20:14:11.106Z,116.27
2023-02-09T20:16:39.706Z,112.17
2023-02-09T20:19:08.564Z,122.73
2023-02-09T20:21:38.496Z,113.30
2023-02-09T20:24:10.069Z,120.00
2023-02-09T20:26:38.530Z,117.93
2023-02-09T20:29:07.805Z,114.27
2023-02-09T20:31:37.698Z,123.23
2023-02-09T20:34:07.463Z,119.20
2023-02-09T20:36:37.198Z,120.33
2023-02-09T20:39:08.078Z,104.63
2023-02-09T20:41:36.532Z,120.77
2023-02-09T20:44:22.709Z,113.30
2023-02-09T20:46:56.921Z,118.43
2023-02-09T20:49:29.480Z,124.07
2023-02-09T20:51:57.884Z,120.00
2023-02-09T20:54:27.643Z,114.60
2023-02-09T20:56:56.072Z,115.43
2023-02-09T20:59:25.181Z,118.73
2023-02-09T21:01:53.700Z,119.73
2023-02-09T21:04:22.339Z,117.60
2023-02-09T21:06:50.700Z,116.63
2023-02-09T21:09:25.438Z,130.47
2023-02-09T21:11:56.094Z,118.80
2023-02-09T21:14:41.059Z,135.27
2023-02-09T21:17:10.396Z,121.90
2023-02-09T21:19:38.837Z,117.23
2023-02-09T21:22:07.893Z,107.23
2023-02-09T21:24:36.545Z,112.93
2023-02-09T21:27:06.638Z,111.73
2023-02-09T21:29:35.729Z,102.60
2023-02-09T21:32:05.098Z,120.23
2023-02-09T21:34:33.512Z,116.43
2023-02-09T21:37:02.161Z,106.80
2023-02-09T21:39:31.634Z,117.97
2023-02-09T21:42:18.011Z,110.93
2023-02-09T21:44:48.235Z,108.20
2023-02-09T21:47:16.872Z,106.90
2023-02-09T21:49:45.266Z,113.77
2023-02-09T21:52:13.920Z,108.77
2023-02-09T21:54:42.515Z,109.60
2023-02-09T21:57:11.086Z,106.37
2023-02-09T21:59:39.846Z,111.77
2023-02-09T22:02:10.164Z,117.73
2023-02-09T22:04:39.892Z,103.43
2023-02-09T22:07:08.491Z,113.90
2023-02-09T22:09:37.144Z,116.07
2023-02-09T22:12:06.048Z,111.20
2023-02-09T22:14:34.822Z,109.30
2023-02-09T22:17:03.496Z,121.60
2023-02-09T22:19:33.626Z,118.13
2023-02-09T22:22:02.082Z,116.10
2023-02-09T22:24:34.743Z,109.80
2023-02-09T22:27:03.348Z,116.10
2023-02-09T22:29:33.314Z,107.13
2023-02-09T22:32:01.795Z,97.63
2023-02-09T22:34:30.375Z,109.27
2023-02-09T22:37:00.184Z,99.60
2023-02-09T22:39:28.625Z,124.43
2023-02-09T22:41:58.056Z,125.60
2023-02-09T22:44:28.002Z,111.23
2023-02-09T22:46:56.408Z,111.20
2023-02-09T22:49:24.979Z,104.37
2023-02-09T22:51:53.475Z,126.93
2023-02-09T22:54:23.275Z,121.17
2023-02-09T22:56:52.046Z,104.50
2023-02-09T22:59:20.463Z,115.17
2023-02-09T23:01:49.256Z,119.83
2023-02-09T23:04:17.839Z,106.67
2023-02-09T23:06:46.327Z,104.90
2023-02-09T23:09:15.363Z,108.13
2023-02-09T23:11:47.488Z,114.97
2023-02-09T23:14:16.096Z,113.83
2023-02-09T23:16:45.486Z,115.67
2023-02-09T23:19:14.886Z,105.47
2023-02-09T23:21:44.468Z,105.43
2023-02-09T23:24:13.567Z,94.93
2023-02-09T23:26:41.954Z,104.13
2023-02-09T23:29:12.435Z,112.70
2023-02-09T23:31:41.019Z,101.27
2023-02-09T23:34:09.759Z,114.50
2023-02-09T23:36:38.145Z,95.13
2023-02-09T23:39:07.496Z,99.73
2023-02-09T23:41:36.194Z,100.27
2023-02-09T23:44:04.797Z,104.13
2023-02-09T23:46:34.611Z,107.53
2023-02-09T23:49:03.055Z,107.50
2023-02-09T23:51:32.418Z,97.80
2023-02-09T23:54:02.993Z,108.97
2023-02-09T23:56:36.770Z,99.77
2023-02-09T23:59:06.154Z,103.63
